createdAt,value
2022-10-28T00:02:33.382Z,0
2022-10-28T00:08:53.368Z,0
2022-10-28T00:15:16.389Z,0
2022-10-28T00:21:36.335Z,0
2022-10-28T00:27:59.377Z,0
2022-10-28T00:34:19.361Z,0
2022-10-28T00:40:42.346Z,0
2022-10-28T00:47:02.352Z,0
2022-10-28T00:53:25.397Z,0
2022-10-28T00:59:45.323Z,0
2022-10-28T01:06:08.363Z,0
2022-10-28T01:12:28.399Z,0
2022-10-28T01:18:51.327Z,0
2022-10-28T01:25:11.396Z,0
2022-10-28T01:31:34.353Z,0
2022-10-28T01:37:54.713Z,0
2022-10-28T01:44:17.349Z,0
2022-10-28T01:50:37.370Z,0
2022-10-28T01:57:00.325Z,0
2022-10-28T02:03:20.319Z,0
2022-10-28T02:09:43.343Z,0
2022-10-28T02:16:03.339Z,0
2022-10-28T02:22:26.371Z,0
2022-10-28T02:28:46.363Z,0
2022-10-28T02:35:09.366Z,0
2022-10-28T02:41:29.328Z,0
2022-10-28T02:47:52.396Z,0
2022-10-28T02:54:12.321Z,0
2022-10-28T03:00:35.314Z,0
2022-10-28T03:06:55.427Z,0
2022-10-28T03:13:18.366Z,0
2022-10-28T03:19:38.420Z,0
2022-10-28T03:26:01.345Z,0
2022-10-28T03:38:44.346Z,0
2022-10-28T04:02:14.063Z,0
2022-10-28T04:08:33.333Z,0
2022-10-28T04:14:56.353Z,0
2022-10-28T04:21:16.512Z,0
2022-10-28T04:27:39.346Z,0
2022-10-28T04:33:59.351Z,0
2022-10-28T04:40:22.342Z,0
2022-10-28T04:46:42.362Z,0
2022-10-28T04:53:05.351Z,0
2022-10-28T04:59:25.348Z,0
2022-10-28T05:05:48.539Z,0
2022-10-28T05:12:08.394Z,0
2022-10-28T05:18:31.407Z,0
2022-10-28T05:24:51.344Z,0
2022-10-28T05:31:14.401Z,0
2022-10-28T05:37:34.342Z,0
2022-10-28T05:43:57.319Z,0
2022-10-28T05:50:17.358Z,1
2022-10-28T05:56:40.332Z,2
2022-10-28T06:03:00.318Z,8
2022-10-28T06:09:23.332Z,17
2022-10-28T06:15:41.825Z,33
2022-10-28T06:22:04.854Z,60
2022-10-28T06:28:24.798Z,91
2022-10-28T06:34:47.928Z,137
2022-10-28T06:41:07.839Z,180
2022-10-28T06:47:32.357Z,215
2022-10-28T06:53:52.408Z,281
2022-10-28T07:00:15.438Z,325
2022-10-28T07:06:35.360Z,486
2022-10-28T07:12:58.527Z,574
2022-10-28T07:19:22.450Z,695
2022-10-28T07:25:41.443Z,876
2022-10-28T07:32:01.450Z,842
2022-10-28T07:38:24.368Z,809
2022-10-28T07:44:44.416Z,744
2022-10-28T07:51:07.398Z,780
2022-10-28T07:57:27.451Z,1032
2022-10-28T08:03:50.467Z,1131
2022-10-28T08:10:10.389Z,1296
2022-10-28T08:16:33.417Z,1464
2022-10-28T08:22:53.448Z,1486
2022-10-28T08:29:16.377Z,1492
2022-10-28T08:35:36.382Z,1432
2022-10-28T08:41:59.345Z,1387
2022-10-28T08:48:19.408Z,1311
2022-10-28T08:54:42.315Z,1532
2022-10-28T09:01:02.455Z,1587
2022-10-28T09:07:25.370Z,1137
2022-10-28T09:30:49.280Z,2079
2022-10-28T09:37:09.352Z,2445
2022-10-28T09:43:32.461Z,2208
2022-10-28T09:49:52.355Z,2308
2022-10-28T09:56:15.358Z,1742
2022-10-28T10:02:35.424Z,1788
2022-10-28T10:08:58.361Z,2891
2022-10-28T10:15:18.330Z,3295
2022-10-28T10:21:41.374Z,3767
2022-10-28T10:28:01.368Z,4093
2022-10-28T10:34:24.378Z,4358
2022-10-28T10:40:44.336Z,4062
2022-10-28T10:47:07.373Z,3248
2022-10-28T10:53:27.389Z,3327
2022-10-28T10:59:50.323Z,3401
2022-10-28T11:06:25.659Z,3044
2022-10-28T11:12:33.330Z,3948
2022-10-28T11:18:53.333Z,4191
2022-10-28T11:25:16.406Z,4110
2022-10-28T11:31:36.347Z,2004
2022-10-28T11:37:59.374Z,4038
2022-10-28T11:44:19.360Z,2880
2022-10-28T11:50:42.348Z,3587
2022-10-28T11:57:02.348Z,3212
2022-10-28T12:03:25.436Z,3878
2022-10-28T12:09:45.363Z,4272
2022-10-28T12:16:08.328Z,4270
2022-10-28T12:22:28.353Z,4452
2022-10-28T12:28:51.356Z,4284
2022-10-28T12:35:11.329Z,2852
2022-10-28T12:41:34.434Z,2604
2022-10-28T12:47:54.630Z,1805
2022-10-28T12:54:17.327Z,2299
2022-10-28T13:00:37.394Z,2728
2022-10-28T13:07:00.338Z,2479
2022-10-28T13:13:20.436Z,2179
2022-10-28T13:19:44.356Z,2011
2022-10-28T13:26:04.443Z,2155
2022-10-28T13:32:27.394Z,2372
2022-10-28T13:38:47.525Z,2202
2022-10-28T13:45:10.383Z,2194
2022-10-28T13:51:30.421Z,2081
2022-10-28T13:57:53.773Z,1802
2022-10-28T14:04:13.353Z,1734
2022-10-28T14:10:36.374Z,1534
2022-10-28T14:16:56.448Z,1269
2022-10-28T14:23:19.368Z,1162
2022-10-28T14:29:39.468Z,1064
2022-10-28T14:36:02.416Z,1086
2022-10-28T14:42:22.366Z,1106
2022-10-28T14:58:15.300Z,894
2022-10-28T15:04:35.378Z,777
2022-10-28T15:10:58.395Z,755
2022-10-28T15:17:18.502Z,659
2022-10-28T15:23:41.522Z,570
2022-10-28T15:30:01.415Z,423
2022-10-28T15:36:24.485Z,321
2022-10-28T15:42:44.378Z,260
2022-10-28T15:49:07.517Z,188
2022-10-28T15:55:30.835Z,137
2022-10-28T16:01:50.503Z,91
2022-10-28T16:08:10.404Z,53
2022-10-28T16:14:33.445Z,33
2022-10-28T16:20:53.403Z,19
2022-10-28T16:27:16.325Z,8
2022-10-28T16:33:36.398Z,3
2022-10-28T16:39:59.434Z,1
2022-10-28T16:46:19.340Z,0
2022-10-28T16:52:42.549Z,0
2022-10-28T16:59:02.363Z,0
2022-10-28T17:05:25.373Z,0
2022-10-28T17:11:45.375Z,0
2022-10-28T17:18:08.369Z,0
2022-10-28T17:24:28.369Z,0
2022-10-28T17:30:51.359Z,0
2022-10-28T17:37:11.370Z,0
2022-10-28T17:43:34.366Z,0
2022-10-28T17:49:54.425Z,0
2022-10-28T17:56:17.374Z,0
2022-10-28T18:02:37.434Z,0
2022-10-28T18:09:00.395Z,0
2022-10-28T18:15:20.305Z,0
2022-10-28T18:21:43.310Z,0
2022-10-28T18:28:03.582Z,0
2022-10-28T18:34:26.387Z,0
2022-10-28T18:40:47.595Z,0
2022-10-28T18:47:10.361Z,0
2022-10-28T18:53:30.399Z,0
2022-10-28T19:00:19.548Z,0
2022-10-28T19:06:13.349Z,0
2022-10-28T19:12:39.313Z,0
2022-10-28T19:18:56.313Z,0
2022-10-28T19:25:19.400Z,0
2022-10-28T19:31:39.324Z,0
2022-10-28T19:38:02.358Z,0
2022-10-28T19:44:22.338Z,0
2022-10-28T19:50:45.328Z,0
2022-10-28T20:13:33.885Z,0
2022-10-28T20:19:53.310Z,0
2022-10-28T20:26:16.359Z,0
2022-10-28T20:32:36.341Z,0
2022-10-28T20:38:59.319Z,0
2022-10-28T20:45:19.379Z,0
2022-10-28T20:51:42.345Z,0
2022-10-28T20:58:02.433Z,0
2022-10-28T21:04:25.388Z,0
2022-10-28T21:10:45.349Z,0
2022-10-28T21:17:08.346Z,0
2022-10-28T21:23:28.369Z,0
2022-10-28T21:29:51.484Z,0
2022-10-28T21:36:11.316Z,0
2022-10-28T21:42:34.320Z,0
2022-10-28T21:48:54.409Z,0
2022-10-28T21:55:20.903Z,0
2022-10-28T22:20:28.388Z,0
2022-10-28T22:26:48.306Z,0
2022-10-28T22:33:11.377Z,0
2022-10-28T22:39:31.350Z,0
2022-10-28T22:45:54.397Z,0
2022-10-28T22:52:14.321Z,0
2022-10-28T22:58:37.436Z,0
2022-10-28T23:04:57.434Z,0
2022-10-28T23:11:20.394Z,0
2022-10-28T23:17:40.391Z,0
2022-10-28T23:24:03.342Z,0
2022-10-28T23:30:23.355Z,0
2022-10-28T23:36:46.365Z,0
2022-10-28T23:43:06.337Z,0
2022-10-28T23:49:29.370Z,0
2022-10-28T23:55:49.444Z,0
